sensor_id;sensor_type;location;lat;lon;timestamp;P1;durP1;ratioP1;P2;durP2;ratioP2
35558;SDS011;21661;50.794;-1.066;2023-05-01T00:00:07;65.90;;;34.28;;
35558;SDS011;21661;50.794;-1.066;2023-05-01T00:02:33;62.10;;;33.13;;
35558;SDS011;21661;50.794;-1.066;2023-05-01T00:05:00;69.32;;;33.22;;
35558;SDS011;21661;50.794;-1.066;2023-05-01T00:07:26;62.75;;;32.67;;
35558;SDS011;21661;50.794;-1.066;2023-05-01T00:09:54;63.75;;;33.50;;
35558;SDS011;21661;50.794;-1.066;2023-05-01T00:12:21;63.25;;;32.17;;
35558;SDS011;21661;50.794;-1.066;2023-05-01T00:14:47;61.72;;;31.30;;
35558;SDS011;21661;50.794;-1.066;2023-05-01T00:17:13;63.10;;;32.17;;
35558;SDS011;21661;50.794;-1.066;2023-05-01T00:19:39;61.25;;;31.23;;
35558;SDS011;21661;50.794;-1.066;2023-05-01T00:22:05;62.15;;;31.63;;
35558;SDS011;21661;50.794;-1.066;2023-05-01T00:24:31;64.95;;;32.63;;
35558;SDS011;21661;50.794;-1.066;2023-05-01T00:26:56;63.17;;;31.85;;
35558;SDS011;21661;50.794;-1.066;2023-05-01T00:29:22;63.40;;;32.22;;
35558;SDS011;21661;50.794;-1.066;2023-05-01T00:31:47;68.97;;;33.05;;
35558;SDS011;21661;50.794;-1.066;2023-05-01T00:34:13;60.45;;;31.45;;
35558;SDS011;21661;50.794;-1.066;2023-05-01T00:36:39;58.17;;;30.60;;
35558;SDS011;21661;50.794;-1.066;2023-05-01T00:39:04;67.30;;;32.60;;
35558;SDS011;21661;50.794;-1.066;2023-05-01T00:41:32;64.22;;;32.70;;
35558;SDS011;21661;50.794;-1.066;2023-05-01T00:43:58;61.38;;;32.42;;
35558;SDS011;21661;50.794;-1.066;2023-05-01T00:46:24;65.13;;;33.13;;
35558;SDS011;21661;50.794;-1.066;2023-05-01T00:48:50;65.28;;;31.92;;
35558;SDS011;21661;50.794;-1.066;2023-05-01T00:51:16;62.80;;;30.35;;
35558;SDS011;21661;50.794;-1.066;2023-05-01T00:53:44;64.05;;;32.28;;
35558;SDS011;21661;50.794;-1.066;2023-05-01T00:56:09;64.65;;;31.50;;
35558;SDS011;21661;50.794;-1.066;2023-05-01T00:58:35;60.88;;;31.48;;
35558;SDS011;21661;50.794;-1.066;2023-05-01T01:01:02;66.00;;;31.95;;
35558;SDS011;21661;50.794;-1.066;2023-05-01T01:03:29;59.65;;;30.65;;
35558;SDS011;21661;50.794;-1.066;2023-05-01T01:06:06;63.13;;;30.60;;
35558;SDS011;21661;50.794;-1.066;2023-05-01T01:08:42;62.80;;;30.42;;
35558;SDS011;21661;50.794;-1.066;2023-05-01T01:11:16;62.63;;;29.10;;
35558;SDS011;21661;50.794;-1.066;2023-05-01T01:13:58;57.22;;;28.80;;
35558;SDS011;21661;50.794;-1.066;2023-05-01T01:17:03;56.67;;;29.48;;
35558;SDS011;21661;50.794;-1.066;2023-05-01T01:21:57;56.17;;;26.45;;
35558;SDS011;21661;50.794;-1.066;2023-05-01T01:36:16;48.72;;;21.88;;
35558;SDS011;21661;50.794;-1.066;2023-05-01T01:38:45;46.67;;;19.98;;
35558;SDS011;21661;50.794;-1.066;2023-05-01T01:41:26;46.88;;;19.13;;
35558;SDS011;21661;50.794;-1.066;2023-05-01T01:44:03;47.13;;;18.60;;
35558;SDS011;21661;50.794;-1.066;2023-05-01T01:46:50;41.83;;;17.83;;
35558;SDS011;21661;50.794;-1.066;2023-05-01T01:49:19;47.55;;;19.40;;
35558;SDS011;21661;50.794;-1.066;2023-05-01T01:51:49;44.90;;;18.40;;
35558;SDS011;21661;50.794;-1.066;2023-05-01T01:54:18;45.50;;;19.45;;
35558;SDS011;21661;50.794;-1.066;2023-05-01T01:56:48;49.13;;;18.92;;
35558;SDS011;21661;50.794;-1.066;2023-05-01T01:59:15;49.88;;;19.55;;
35558;SDS011;21661;50.794;-1.066;2023-05-01T02:01:43;55.50;;;20.45;;
35558;SDS011;21661;50.794;-1.066;2023-05-01T02:04:10;55.00;;;20.55;;
35558;SDS011;21661;50.794;-1.066;2023-05-01T02:06:38;59.05;;;22.70;;
35558;SDS011;21661;50.794;-1.066;2023-05-01T02:09:05;55.17;;;21.15;;
35558;SDS011;21661;50.794;-1.066;2023-05-01T02:11:33;55.13;;;20.08;;
35558;SDS011;21661;50.794;-1.066;2023-05-01T02:14:01;59.45;;;21.75;;
35558;SDS011;21661;50.794;-1.066;2023-05-01T02:16:28;58.00;;;21.92;;
35558;SDS011;21661;50.794;-1.066;2023-05-01T02:18:55;54.20;;;19.83;;
35558;SDS011;21661;50.794;-1.066;2023-05-01T02:21:21;53.67;;;19.73;;
35558;SDS011;21661;50.794;-1.066;2023-05-01T02:23:50;48.15;;;19.25;;
35558;SDS011;21661;50.794;-1.066;2023-05-01T02:26:16;49.33;;;20.17;;
35558;SDS011;21661;50.794;-1.066;2023-05-01T02:28:44;54.58;;;20.02;;
35558;SDS011;21661;50.794;-1.066;2023-05-01T02:31:10;51.60;;;20.00;;
35558;SDS011;21661;50.794;-1.066;2023-05-01T02:33:35;53.65;;;21.08;;
35558;SDS011;21661;50.794;-1.066;2023-05-01T02:36:01;53.38;;;20.77;;
35558;SDS011;21661;50.794;-1.066;2023-05-01T02:38:29;47.45;;;19.73;;
35558;SDS011;21661;50.794;-1.066;2023-05-01T02:40:55;47.70;;;19.20;;
35558;SDS011;21661;50.794;-1.066;2023-05-01T02:43:22;48.92;;;20.92;;
35558;SDS011;21661;50.794;-1.066;2023-05-01T02:45:50;49.97;;;19.23;;
35558;SDS011;21661;50.794;-1.066;2023-05-01T02:48:22;41.40;;;18.05;;
35558;SDS011;21661;50.794;-1.066;2023-05-01T02:50:52;47.60;;;20.00;;
35558;SDS011;21661;50.794;-1.066;2023-05-01T02:53:20;42.40;;;19.35;;
35558;SDS011;21661;50.794;-1.066;2023-05-01T02:55:46;41.03;;;17.38;;
35558;SDS011;21661;50.794;-1.066;2023-05-01T02:58:15;39.50;;;16.88;;
35558;SDS011;21661;50.794;-1.066;2023-05-01T03:00:42;41.65;;;17.52;;
35558;SDS011;21661;50.794;-1.066;2023-05-01T03:03:08;36.88;;;15.80;;
35558;SDS011;21661;50.794;-1.066;2023-05-01T03:05:34;31.63;;;15.57;;
35558;SDS011;21661;50.794;-1.066;2023-05-01T03:08:00;33.88;;;15.38;;
35558;SDS011;21661;50.794;-1.066;2023-05-01T03:10:25;35.55;;;16.45;;
35558;SDS011;21661;50.794;-1.066;2023-05-01T03:12:51;36.67;;;15.32;;
35558;SDS011;21661;50.794;-1.066;2023-05-01T03:15:17;36.45;;;14.88;;
35558;SDS011;21661;50.794;-1.066;2023-05-01T03:17:42;34.38;;;14.02;;
35558;SDS011;21661;50.794;-1.066;2023-05-01T03:20:08;32.33;;;13.85;;
35558;SDS011;21661;50.794;-1.066;2023-05-01T03:22:34;33.25;;;13.90;;
35558;SDS011;21661;50.794;-1.066;2023-05-01T03:25:00;30.13;;;13.63;;
35558;SDS011;21661;50.794;-1.066;2023-05-01T03:27:28;28.10;;;13.73;;
35558;SDS011;21661;50.794;-1.066;2023-05-01T03:29:54;30.90;;;13.43;;
35558;SDS011;21661;50.794;-1.066;2023-05-01T03:32:21;28.83;;;13.07;;
35558;SDS011;21661;50.794;-1.066;2023-05-01T03:34:46;28.45;;;13.00;;
35558;SDS011;21661;50.794;-1.066;2023-05-01T03:37:12;28.25;;;12.77;;
35558;SDS011;21661;50.794;-1.066;2023-05-01T03:39:38;26.85;;;12.27;;
35558;SDS011;21661;50.794;-1.066;2023-05-01T03:42:03;24.42;;;12.43;;
35558;SDS011;21661;50.794;-1.066;2023-05-01T03:44:29;23.63;;;11.55;;
35558;SDS011;21661;50.794;-1.066;2023-05-01T03:46:55;25.52;;;12.40;;
35558;SDS011;21661;50.794;-1.066;2023-05-01T03:49:20;26.80;;;12.25;;
35558;SDS011;21661;50.794;-1.066;2023-05-01T03:51:46;23.95;;;11.73;;
35558;SDS011;21661;50.794;-1.066;2023-05-01T03:54:12;25.58;;;12.07;;
35558;SDS011;21661;50.794;-1.066;2023-05-01T03:56:38;26.05;;;12.35;;
35558;SDS011;21661;50.794;-1.066;2023-05-01T03:59:03;29.02;;;12.13;;
35558;SDS011;21661;50.794;-1.066;2023-05-01T04:01:29;27.00;;;11.35;;
35558;SDS011;21661;50.794;-1.066;2023-05-01T04:03:57;27.35;;;11.70;;
35558;SDS011;21661;50.794;-1.066;2023-05-01T04:06:23;22.75;;;11.75;;
35558;SDS011;21661;50.794;-1.066;2023-05-01T04:08:50;25.75;;;11.77;;
35558;SDS011;21661;50.794;-1.066;2023-05-01T04:11:15;25.98;;;11.52;;
35558;SDS011;21661;50.794;-1.066;2023-05-01T04:13:41;26.70;;;11.82;;
35558;SDS011;21661;50.794;-1.066;2023-05-01T04:16:06;25.10;;;12.18;;
35558;SDS011;21661;50.794;-1.066;2023-05-01T04:18:32;27.40;;;13.05;;
35558;SDS011;21661;50.794;-1.066;2023-05-01T04:20:57;21.13;;;10.85;;
35558;SDS011;21661;50.794;-1.066;2023-05-01T04:23:23;23.58;;;12.07;;
35558;SDS011;21661;50.794;-1.066;2023-05-01T04:25:49;24.33;;;11.68;;
35558;SDS011;21661;50.794;-1.066;2023-05-01T04:28:14;26.27;;;12.18;;
35558;SDS011;21661;50.794;-1.066;2023-05-01T04:30:40;24.05;;;11.95;;
35558;SDS011;21661;50.794;-1.066;2023-05-01T04:33:06;25.02;;;11.85;;
35558;SDS011;21661;50.794;-1.066;2023-05-01T04:35:36;23.90;;;11.70;;
35558;SDS011;21661;50.794;-1.066;2023-05-01T04:38:03;28.60;;;12.10;;
35558;SDS011;21661;50.794;-1.066;2023-05-01T04:40:29;27.67;;;11.05;;
35558;SDS011;21661;50.794;-1.066;2023-05-01T04:42:55;22.42;;;10.60;;
35558;SDS011;21661;50.794;-1.066;2023-05-01T04:45:21;21.52;;;9.75;;
35558;SDS011;21661;50.794;-1.066;2023-05-01T04:47:46;22.35;;;9.52;;
35558;SDS011;21661;50.794;-1.066;2023-05-01T04:50:12;21.75;;;9.85;;
35558;SDS011;21661;50.794;-1.066;2023-05-01T04:52:38;26.25;;;10.65;;
35558;SDS011;21661;50.794;-1.066;2023-05-01T04:55:04;18.52;;;8.88;;
35558;SDS011;21661;50.794;-1.066;2023-05-01T04:57:30;21.27;;;9.18;;
35558;SDS011;21661;50.794;-1.066;2023-05-01T04:59:56;23.15;;;9.60;;
35558;SDS011;21661;50.794;-1.066;2023-05-01T05:02:22;18.35;;;9.05;;
35558;SDS011;21661;50.794;-1.066;2023-05-01T05:04:47;18.98;;;8.40;;
35558;SDS011;21661;50.794;-1.066;2023-05-01T05:07:13;22.13;;;7.65;;
35558;SDS011;21661;50.794;-1.066;2023-05-01T05:09:38;16.83;;;6.72;;
35558;SDS011;21661;50.794;-1.066;2023-05-01T05:12:04;15.70;;;6.82;;
35558;SDS011;21661;50.794;-1.066;2023-05-01T05:14:30;15.80;;;6.90;;
35558;SDS011;21661;50.794;-1.066;2023-05-01T05:16:55;22.77;;;7.15;;
35558;SDS011;21661;50.794;-1.066;2023-05-01T05:19:21;20.90;;;7.70;;
35558;SDS011;21661;50.794;-1.066;2023-05-01T05:21:46;21.05;;;8.05;;
35558;SDS011;21661;50.794;-1.066;2023-05-01T05:24:12;17.80;;;7.97;;
35558;SDS011;21661;50.794;-1.066;2023-05-01T05:26:38;20.25;;;8.50;;
35558;SDS011;21661;50.794;-1.066;2023-05-01T05:29:03;17.48;;;8.43;;
35558;SDS011;21661;50.794;-1.066;2023-05-01T05:31:29;17.20;;;7.68;;
35558;SDS011;21661;50.794;-1.066;2023-05-01T05:33:55;21.33;;;7.88;;
35558;SDS011;21661;50.794;-1.066;2023-05-01T05:36:20;17.75;;;7.45;;
35558;SDS011;21661;50.794;-1.066;2023-05-01T05:38:46;21.95;;;7.75;;
35558;SDS011;21661;50.794;-1.066;2023-05-01T05:41:11;19.58;;;7.35;;
35558;SDS011;21661;50.794;-1.066;2023-05-01T05:43:37;19.05;;;7.15;;
35558;SDS011;21661;50.794;-1.066;2023-05-01T05:46:03;19.98;;;7.38;;
35558;SDS011;21661;50.794;-1.066;2023-05-01T05:48:28;18.25;;;7.22;;
35558;SDS011;21661;50.794;-1.066;2023-05-01T05:50:54;17.75;;;6.97;;
35558;SDS011;21661;50.794;-1.066;2023-05-01T05:53:20;21.27;;;6.32;;
35558;SDS011;21661;50.794;-1.066;2023-05-01T05:55:46;16.25;;;6.13;;
35558;SDS011;21661;50.794;-1.066;2023-05-01T05:58:12;18.23;;;6.10;;
35558;SDS011;21661;50.794;-1.066;2023-05-01T06:03:13;15.38;;;6.00;;
35558;SDS011;21661;50.794;-1.066;2023-05-01T06:05:39;17.38;;;5.40;;
35558;SDS011;21661;50.794;-1.066;2023-05-01T06:08:04;20.98;;;6.13;;
35558;SDS011;21661;50.794;-1.066;2023-05-01T06:10:30;13.95;;;5.60;;
35558;SDS011;21661;50.794;-1.066;2023-05-01T06:12:55;14.07;;;5.80;;
35558;SDS011;21661;50.794;-1.066;2023-05-01T06:15:21;14.32;;;5.82;;
35558;SDS011;21661;50.794;-1.066;2023-05-01T06:17:48;13.35;;;5.50;;
35558;SDS011;21661;50.794;-1.066;2023-05-01T06:20:14;14.93;;;6.75;;
35558;SDS011;21661;50.794;-1.066;2023-05-01T06:22:40;17.25;;;5.05;;
35558;SDS011;21661;50.794;-1.066;2023-05-01T06:25:06;16.95;;;5.72;;
35558;SDS011;21661;50.794;-1.066;2023-05-01T06:27:33;12.43;;;5.50;;
35558;SDS011;21661;50.794;-1.066;2023-05-01T06:29:58;16.80;;;5.25;;
35558;SDS011;21661;50.794;-1.066;2023-05-01T06:32:24;14.32;;;6.25;;
35558;SDS011;21661;50.794;-1.066;2023-05-01T06:34:49;17.65;;;5.78;;
35558;SDS011;21661;50.794;-1.066;2023-05-01T06:37:15;15.52;;;5.78;;
35558;SDS011;21661;50.794;-1.066;2023-05-01T06:39:40;14.13;;;5.45;;
35558;SDS011;21661;50.794;-1.066;2023-05-01T06:42:06;17.08;;;5.72;;
35558;SDS011;21661;50.794;-1.066;2023-05-01T06:44:31;11.52;;;4.30;;
35558;SDS011;21661;50.794;-1.066;2023-05-01T06:46:57;12.63;;;4.65;;
35558;SDS011;21661;50.794;-1.066;2023-05-01T06:49:25;12.35;;;4.30;;
35558;SDS011;21661;50.794;-1.066;2023-05-01T06:51:51;12.45;;;4.65;;
35558;SDS011;21661;50.794;-1.066;2023-05-01T06:54:17;12.40;;;5.00;;
35558;SDS011;21661;50.794;-1.066;2023-05-01T06:56:43;9.00;;;4.60;;
35558;SDS011;21661;50.794;-1.066;2023-05-01T06:59:08;15.30;;;5.55;;
35558;SDS011;21661;50.794;-1.066;2023-05-01T07:01:34;12.02;;;4.15;;
35558;SDS011;21661;50.794;-1.066;2023-05-01T07:04:00;8.90;;;3.80;;
35558;SDS011;21661;50.794;-1.066;2023-05-01T07:06:25;9.77;;;3.20;;
35558;SDS011;21661;50.794;-1.066;2023-05-01T07:08:51;10.77;;;3.47;;
35558;SDS011;21661;50.794;-1.066;2023-05-01T07:11:17;7.45;;;3.20;;
35558;SDS011;21661;50.794;-1.066;2023-05-01T07:13:44;8.32;;;3.08;;
35558;SDS011;21661;50.794;-1.066;2023-05-01T07:16:09;7.25;;;2.80;;
35558;SDS011;21661;50.794;-1.066;2023-05-01T07:18:35;8.30;;;2.90;;
35558;SDS011;21661;50.794;-1.066;2023-05-01T07:21:01;8.07;;;2.97;;
35558;SDS011;21661;50.794;-1.066;2023-05-01T07:23:27;7.78;;;2.38;;
35558;SDS011;21661;50.794;-1.066;2023-05-01T07:25:53;10.77;;;3.78;;
35558;SDS011;21661;50.794;-1.066;2023-05-01T07:28:19;8.13;;;3.00;;
35558;SDS011;21661;50.794;-1.066;2023-05-01T07:30:46;10.77;;;3.15;;
35558;SDS011;21661;50.794;-1.066;2023-05-01T07:33:11;9.70;;;3.38;;
35558;SDS011;21661;50.794;-1.066;2023-05-01T07:35:37;8.18;;;3.50;;
35558;SDS011;21661;50.794;-1.066;2023-05-01T07:38:02;8.43;;;3.33;;
35558;SDS011;21661;50.794;-1.066;2023-05-01T07:40:28;7.95;;;3.28;;
35558;SDS011;21661;50.794;-1.066;2023-05-01T07:42:56;11.00;;;3.80;;
35558;SDS011;21661;50.794;-1.066;2023-05-01T07:45:22;12.02;;;4.18;;
35558;SDS011;21661;50.794;-1.066;2023-05-01T07:47:47;11.63;;;3.80;;
35558;SDS011;21661;50.794;-1.066;2023-05-01T07:50:14;10.40;;;3.88;;
35558;SDS011;21661;50.794;-1.066;2023-05-01T07:52:39;9.75;;;4.00;;
35558;SDS011;21661;50.794;-1.066;2023-05-01T07:55:06;14.35;;;4.38;;
35558;SDS011;21661;50.794;-1.066;2023-05-01T07:57:33;9.05;;;3.88;;
35558;SDS011;21661;50.794;-1.066;2023-05-01T07:59:59;11.55;;;3.97;;
35558;SDS011;21661;50.794;-1.066;2023-05-01T08:02:25;13.02;;;3.90;;
35558;SDS011;21661;50.794;-1.066;2023-05-01T08:04:51;10.77;;;3.92;;
35558;SDS011;21661;50.794;-1.066;2023-05-01T08:07:16;9.80;;;3.72;;
35558;SDS011;21661;50.794;-1.066;2023-05-01T08:09:42;12.95;;;4.40;;
35558;SDS011;21661;50.794;-1.066;2023-05-01T08:12:07;14.13;;;4.05;;
35558;SDS011;21661;50.794;-1.066;2023-05-01T08:14:33;9.30;;;3.70;;
35558;SDS011;21661;50.794;-1.066;2023-05-01T08:16:59;15.15;;;3.97;;
35558;SDS011;21661;50.794;-1.066;2023-05-01T08:19:24;11.02;;;3.72;;
35558;SDS011;21661;50.794;-1.066;2023-05-01T08:21:52;13.25;;;4.00;;
35558;SDS011;21661;50.794;-1.066;2023-05-01T08:24:17;11.60;;;4.13;;
35558;SDS011;21661;50.794;-1.066;2023-05-01T08:26:43;8.35;;;4.13;;
35558;SDS011;21661;50.794;-1.066;2023-05-01T08:29:09;12.10;;;3.88;;
35558;SDS011;21661;50.794;-1.066;2023-05-01T08:31:35;15.32;;;4.30;;
35558;SDS011;21661;50.794;-1.066;2023-05-01T08:34:02;9.65;;;3.78;;
35558;SDS011;21661;50.794;-1.066;2023-05-01T08:36:28;11.77;;;4.25;;
35558;SDS011;21661;50.794;-1.066;2023-05-01T08:38:55;13.73;;;4.30;;
35558;SDS011;21661;50.794;-1.066;2023-05-01T08:41:21;13.95;;;4.65;;
35558;SDS011;21661;50.794;-1.066;2023-05-01T08:43:47;20.15;;;5.65;;
35558;SDS011;21661;50.794;-1.066;2023-05-01T08:49:13;13.93;;;4.93;;
35558;SDS011;21661;50.794;-1.066;2023-05-01T08:51:40;11.02;;;4.25;;
35558;SDS011;21661;50.794;-1.066;2023-05-01T08:54:14;12.73;;;3.30;;
35558;SDS011;21661;50.794;-1.066;2023-05-01T08:56:45;12.35;;;3.67;;
35558;SDS011;21661;50.794;-1.066;2023-05-01T08:59:12;12.15;;;3.85;;
35558;SDS011;21661;50.794;-1.066;2023-05-01T09:01:38;9.23;;;3.42;;
35558;SDS011;21661;50.794;-1.066;2023-05-01T09:04:05;12.70;;;3.80;;
35558;SDS011;21661;50.794;-1.066;2023-05-01T09:06:33;9.55;;;3.58;;
35558;SDS011;21661;50.794;-1.066;2023-05-01T09:09:00;13.68;;;4.15;;
35558;SDS011;21661;50.794;-1.066;2023-05-01T09:11:26;13.15;;;3.63;;
35558;SDS011;21661;50.794;-1.066;2023-05-01T09:13:52;10.07;;;3.75;;
35558;SDS011;21661;50.794;-1.066;2023-05-01T09:16:18;10.10;;;3.90;;
35558;SDS011;21661;50.794;-1.066;2023-05-01T09:18:44;8.45;;;3.67;;
35558;SDS011;21661;50.794;-1.066;2023-05-01T09:21:10;11.63;;;4.00;;
35558;SDS011;21661;50.794;-1.066;2023-05-01T09:23:37;8.77;;;3.60;;
35558;SDS011;21661;50.794;-1.066;2023-05-01T09:26:04;11.02;;;3.80;;
35558;SDS011;21661;50.794;-1.066;2023-05-01T09:28:47;12.25;;;3.72;;
35558;SDS011;21661;50.794;-1.066;2023-05-01T09:31:31;13.80;;;3.95;;
35558;SDS011;21661;50.794;-1.066;2023-05-01T09:36:24;9.35;;;4.63;;
35558;SDS011;21661;50.794;-1.066;2023-05-01T09:38:58;14.35;;;3.85;;
35558;SDS011;21661;50.794;-1.066;2023-05-01T09:41:27;11.73;;;3.97;;
35558;SDS011;21661;50.794;-1.066;2023-05-01T09:43:57;13.43;;;4.15;;
35558;SDS011;21661;50.794;-1.066;2023-05-01T09:46:24;9.90;;;3.67;;
35558;SDS011;21661;50.794;-1.066;2023-05-01T09:48:57;11.73;;;4.95;;
35558;SDS011;21661;50.794;-1.066;2023-05-01T09:53:55;8.30;;;4.40;;
35558;SDS011;21661;50.794;-1.066;2023-05-01T09:56:29;10.68;;;3.70;;
35558;SDS011;21661;50.794;-1.066;2023-05-01T09:58:57;13.43;;;4.55;;
35558;SDS011;21661;50.794;-1.066;2023-05-01T10:01:39;9.63;;;4.38;;
35558;SDS011;21661;50.794;-1.066;2023-05-01T10:04:06;10.70;;;4.40;;
35558;SDS011;21661;50.794;-1.066;2023-05-01T10:06:33;11.93;;;5.03;;
35558;SDS011;21661;50.794;-1.066;2023-05-01T10:09:00;10.48;;;4.28;;
35558;SDS011;21661;50.794;-1.066;2023-05-01T10:11:27;12.38;;;4.90;;
35558;SDS011;21661;50.794;-1.066;2023-05-01T10:14:05;10.82;;;4.65;;
35558;SDS011;21661;50.794;-1.066;2023-05-01T10:16:32;11.63;;;4.63;;
35558;SDS011;21661;50.794;-1.066;2023-05-01T10:18:59;11.57;;;4.85;;
35558;SDS011;21661;50.794;-1.066;2023-05-01T10:21:26;10.52;;;4.80;;
35558;SDS011;21661;50.794;-1.066;2023-05-01T10:23:52;9.50;;;4.20;;
35558;SDS011;21661;50.794;-1.066;2023-05-01T10:26:19;11.32;;;5.18;;
35558;SDS011;21661;50.794;-1.066;2023-05-01T10:28:45;14.65;;;5.25;;
35558;SDS011;21661;50.794;-1.066;2023-05-01T10:31:13;11.60;;;4.18;;
35558;SDS011;21661;50.794;-1.066;2023-05-01T10:33:39;13.35;;;5.25;;
35558;SDS011;21661;50.794;-1.066;2023-05-01T10:36:08;10.90;;;4.32;;
35558;SDS011;21661;50.794;-1.066;2023-05-01T10:38:39;9.52;;;4.30;;
35558;SDS011;21661;50.794;-1.066;2023-05-01T10:41:09;12.70;;;4.60;;
35558;SDS011;21661;50.794;-1.066;2023-05-01T10:43:35;9.85;;;4.40;;
35558;SDS011;21661;50.794;-1.066;2023-05-01T10:51:19;7.63;;;4.13;;
35558;SDS011;21661;50.794;-1.066;2023-05-01T10:53:46;11.02;;;4.60;;
35558;SDS011;21661;50.794;-1.066;2023-05-01T10:59:00;8.75;;;4.10;;
35558;SDS011;21661;50.794;-1.066;2023-05-01T11:01:30;9.35;;;4.97;;
35558;SDS011;21661;50.794;-1.066;2023-05-01T11:06:32;7.60;;;4.30;;
35558;SDS011;21661;50.794;-1.066;2023-05-01T11:08:58;10.63;;;4.63;;
35558;SDS011;21661;50.794;-1.066;2023-05-01T11:14:00;15.35;;;5.20;;
35558;SDS011;21661;50.794;-1.066;2023-05-01T11:19:08;11.98;;;5.13;;
35558;SDS011;21661;50.794;-1.066;2023-05-01T11:21:46;11.88;;;5.22;;
35558;SDS011;21661;50.794;-1.066;2023-05-01T11:24:12;10.40;;;5.20;;
35558;SDS011;21661;50.794;-1.066;2023-05-01T11:26:39;11.70;;;5.22;;
35558;SDS011;21661;50.794;-1.066;2023-05-01T11:29:06;10.50;;;4.55;;
35558;SDS011;21661;50.794;-1.066;2023-05-01T11:31:34;10.25;;;5.38;;
35558;SDS011;21661;50.794;-1.066;2023-05-01T11:34:01;9.15;;;5.32;;
35558;SDS011;21661;50.794;-1.066;2023-05-01T11:36:27;12.50;;;6.15;;
35558;SDS011;21661;50.794;-1.066;2023-05-01T11:38:55;12.27;;;5.50;;
35558;SDS011;21661;50.794;-1.066;2023-05-01T11:41:23;11.20;;;5.57;;
35558;SDS011;21661;50.794;-1.066;2023-05-01T11:43:53;12.02;;;6.35;;
35558;SDS011;21661;50.794;-1.066;2023-05-01T11:46:25;12.75;;;6.03;;
35558;SDS011;21661;50.794;-1.066;2023-05-01T11:48:52;9.90;;;5.65;;
35558;SDS011;21661;50.794;-1.066;2023-05-01T11:51:21;13.65;;;6.53;;
35558;SDS011;21661;50.794;-1.066;2023-05-01T11:54:02;11.55;;;6.15;;
35558;SDS011;21661;50.794;-1.066;2023-05-01T11:56:32;14.70;;;6.13;;
35558;SDS011;21661;50.794;-1.066;2023-05-01T11:59:08;13.80;;;6.88;;
35558;SDS011;21661;50.794;-1.066;2023-05-01T12:01:36;14.95;;;7.63;;
35558;SDS011;21661;50.794;-1.066;2023-05-01T12:04:03;14.52;;;8.48;;
35558;SDS011;21661;50.794;-1.066;2023-05-01T12:06:39;17.27;;;7.18;;
35558;SDS011;21661;50.794;-1.066;2023-05-01T12:09:19;11.90;;;5.32;;
35558;SDS011;21661;50.794;-1.066;2023-05-01T12:11:51;9.60;;;5.35;;
35558;SDS011;21661;50.794;-1.066;2023-05-01T12:14:18;12.98;;;5.72;;
35558;SDS011;21661;50.794;-1.066;2023-05-01T12:16:44;10.13;;;5.20;;
35558;SDS011;21661;50.794;-1.066;2023-05-01T12:19:13;11.40;;;5.60;;
35558;SDS011;21661;50.794;-1.066;2023-05-01T12:21:40;11.20;;;5.07;;
35558;SDS011;21661;50.794;-1.066;2023-05-01T12:24:09;10.35;;;5.10;;
35558;SDS011;21661;50.794;-1.066;2023-05-01T12:26:35;7.90;;;4.55;;
35558;SDS011;21661;50.794;-1.066;2023-05-01T12:29:04;5.88;;;4.47;;
35558;SDS011;21661;50.794;-1.066;2023-05-01T12:31:32;6.22;;;3.47;;
35558;SDS011;21661;50.794;-1.066;2023-05-01T12:34:01;8.05;;;4.18;;
35558;SDS011;21661;50.794;-1.066;2023-05-01T12:36:29;9.07;;;4.35;;
35558;SDS011;21661;50.794;-1.066;2023-05-01T12:39:06;5.30;;;3.10;;
35558;SDS011;21661;50.794;-1.066;2023-05-01T12:41:46;5.22;;;3.33;;
35558;SDS011;21661;50.794;-1.066;2023-05-01T12:44:19;8.73;;;3.80;;
35558;SDS011;21661;50.794;-1.066;2023-05-01T12:49:26;8.63;;;3.80;;
35558;SDS011;21661;50.794;-1.066;2023-05-01T12:51:53;5.50;;;2.95;;
35558;SDS011;21661;50.794;-1.066;2023-05-01T12:54:20;4.53;;;2.35;;
35558;SDS011;21661;50.794;-1.066;2023-05-01T12:56:47;4.50;;;2.20;;
35558;SDS011;21661;50.794;-1.066;2023-05-01T12:59:20;3.75;;;1.90;;
35558;SDS011;21661;50.794;-1.066;2023-05-01T13:02:08;4.90;;;1.90;;
35558;SDS011;21661;50.794;-1.066;2023-05-01T13:04:44;2.80;;;1.35;;
35558;SDS011;21661;50.794;-1.066;2023-05-01T13:07:18;3.38;;;1.85;;
35558;SDS011;21661;50.794;-1.066;2023-05-01T13:09:51;4.07;;;1.75;;
35558;SDS011;21661;50.794;-1.066;2023-05-01T13:12:17;3.50;;;1.90;;
35558;SDS011;21661;50.794;-1.066;2023-05-01T13:14:42;5.40;;;1.98;;
35558;SDS011;21661;50.794;-1.066;2023-05-01T13:17:08;5.57;;;2.38;;
35558;SDS011;21661;50.794;-1.066;2023-05-01T13:19:35;6.20;;;2.25;;
35558;SDS011;21661;50.794;-1.066;2023-05-01T13:22:02;7.80;;;2.30;;
35558;SDS011;21661;50.794;-1.066;2023-05-01T13:24:38;5.03;;;2.47;;
35558;SDS011;21661;50.794;-1.066;2023-05-01T13:27:08;5.05;;;2.60;;
35558;SDS011;21661;50.794;-1.066;2023-05-01T13:29:34;7.38;;;3.90;;
35558;SDS011;21661;50.794;-1.066;2023-05-01T13:32:02;9.48;;;5.03;;
35558;SDS011;21661;50.794;-1.066;2023-05-01T13:34:30;7.65;;;3.17;;
35558;SDS011;21661;50.794;-1.066;2023-05-01T13:36:57;6.03;;;4.30;;
35558;SDS011;21661;50.794;-1.066;2023-05-01T13:39:26;6.82;;;3.70;;
35558;SDS011;21661;50.794;-1.066;2023-05-01T13:41:52;4.97;;;3.10;;
35558;SDS011;21661;50.794;-1.066;2023-05-01T13:44:18;8.68;;;3.88;;
35558;SDS011;21661;50.794;-1.066;2023-05-01T13:46:45;7.80;;;3.20;;
35558;SDS011;21661;50.794;-1.066;2023-05-01T13:49:11;5.00;;;2.08;;
35558;SDS011;21661;50.794;-1.066;2023-05-01T13:51:41;5.20;;;2.17;;
35558;SDS011;21661;50.794;-1.066;2023-05-01T13:54:09;9.90;;;2.70;;
35558;SDS011;21661;50.794;-1.066;2023-05-01T13:56:37;5.45;;;2.80;;
35558;SDS011;21661;50.794;-1.066;2023-05-01T13:59:04;31.65;;;19.67;;
35558;SDS011;21661;50.794;-1.066;2023-05-01T14:01:30;50.50;;;27.42;;
35558;SDS011;21661;50.794;-1.066;2023-05-01T14:03:56;55.03;;;27.77;;
35558;SDS011;21661;50.794;-1.066;2023-05-01T14:06:21;8.43;;;4.32;;
35558;SDS011;21661;50.794;-1.066;2023-05-01T14:08:54;4.05;;;1.73;;
35558;SDS011;21661;50.794;-1.066;2023-05-01T14:11:24;4.97;;;1.88;;
35558;SDS011;21661;50.794;-1.066;2023-05-01T14:13:49;5.28;;;2.72;;
35558;SDS011;21661;50.794;-1.066;2023-05-01T14:18:54;7.97;;;3.97;;
35558;SDS011;21661;50.794;-1.066;2023-05-01T14:21:24;13.52;;;7.13;;
35558;SDS011;21661;50.794;-1.066;2023-05-01T14:23:54;5.10;;;2.92;;
35558;SDS011;21661;50.794;-1.066;2023-05-01T14:26:21;9.52;;;4.38;;
35558;SDS011;21661;50.794;-1.066;2023-05-01T14:28:47;11.40;;;6.10;;
35558;SDS011;21661;50.794;-1.066;2023-05-01T14:31:24;12.35;;;6.55;;
35558;SDS011;21661;50.794;-1.066;2023-05-01T14:34:00;8.68;;;4.07;;
35558;SDS011;21661;50.794;-1.066;2023-05-01T14:36:28;2.83;;;1.70;;
35558;SDS011;21661;50.794;-1.066;2023-05-01T14:38:58;2.70;;;1.20;;
35558;SDS011;21661;50.794;-1.066;2023-05-01T14:41:25;4.43;;;2.47;;
35558;SDS011;21661;50.794;-1.066;2023-05-01T14:43:51;7.35;;;4.88;;
35558;SDS011;21661;50.794;-1.066;2023-05-01T14:46:27;5.18;;;3.60;;
35558;SDS011;21661;50.794;-1.066;2023-05-01T14:48:58;5.75;;;4.45;;
35558;SDS011;21661;50.794;-1.066;2023-05-01T14:51:25;14.50;;;3.00;;
35558;SDS011;21661;50.794;-1.066;2023-05-01T14:53:51;5.85;;;3.15;;
35558;SDS011;21661;50.794;-1.066;2023-05-01T14:56:17;3.90;;;2.72;;
35558;SDS011;21661;50.794;-1.066;2023-05-01T14:58:43;4.25;;;2.40;;
35558;SDS011;21661;50.794;-1.066;2023-05-01T15:01:08;4.60;;;2.65;;
35558;SDS011;21661;50.794;-1.066;2023-05-01T15:03:34;4.40;;;2.10;;
35558;SDS011;21661;50.794;-1.066;2023-05-01T15:06:04;3.72;;;1.45;;
35558;SDS011;21661;50.794;-1.066;2023-05-01T15:08:31;7.38;;;4.13;;